createdAt,value
2023-05-06T00:01:16.544Z,75.31
2023-05-06T00:04:00.307Z,73.43
2023-05-06T00:06:44.050Z,73.74
2023-05-06T00:09:28.106Z,71.94
2023-05-06T00:12:11.718Z,72.68
2023-05-06T00:14:55.278Z,72.19
2023-05-06T00:17:38.887Z,71.55
2023-05-06T00:20:23.167Z,72.20
2023-05-06T00:23:06.707Z,73.38
2023-05-06T00:25:50.288Z,71.88
2023-05-06T00:28:34.304Z,74.29
2023-05-06T00:31:17.822Z,76.05
2023-05-06T00:34:01.400Z,73.62
2023-05-06T00:36:44.977Z,72.45
2023-05-06T00:39:28.513Z,71.93
2023-05-06T00:42:12.066Z,74.95
2023-05-06T00:44:55.628Z,75.39
2023-05-06T00:47:40.638Z,74.62
2023-05-06T00:50:25.255Z,75.87
2023-05-06T00:53:10.763Z,73.72
2023-05-06T00:55:54.576Z,74.20
2023-05-06T00:58:39.145Z,76.65
2023-05-06T01:01:23.060Z,76.63
2023-05-06T01:04:08.134Z,76.84
2023-05-06T01:07:34.256Z,78.68
2023-05-06T01:10:42.569Z,78.57
2023-05-06T01:13:50.138Z,78.67
2023-05-06T01:16:40.568Z,80.31
2023-05-06T01:19:49.207Z,80.16
2023-05-06T01:22:37.720Z,81.22
2023-05-06T01:25:23.768Z,80.56
2023-05-06T01:28:11.551Z,81.05
2023-05-06T01:31:17.289Z,80.97
2023-05-06T01:34:17.351Z,81.85
2023-05-06T01:37:30.360Z,81.29
2023-05-06T01:40:17.988Z,81.17
2023-05-06T01:43:06.238Z,81.10
2023-05-06T01:45:54.296Z,81.40
2023-05-06T01:48:40.775Z,80.58
2023-05-06T01:51:25.393Z,83.24
2023-05-06T01:54:09.434Z,82.06
2023-05-06T01:56:54.126Z,83.37
2023-05-06T01:59:37.720Z,81.32
2023-05-06T02:02:21.316Z,81.53
2023-05-06T02:05:05.311Z,81.13
2023-05-06T02:07:48.955Z,82.26
2023-05-06T02:10:32.520Z,84.34
2023-05-06T02:13:20.322Z,82.97
2023-05-06T02:16:04.172Z,82.62
2023-05-06T02:18:48.819Z,82.58
2023-05-06T02:21:33.160Z,81.36
2023-05-06T02:24:16.825Z,82.22
2023-05-06T02:27:00.329Z,81.84
2023-05-06T02:29:44.125Z,82.15
2023-05-06T02:32:27.681Z,82.96
2023-05-06T02:35:11.517Z,82.81
2023-05-06T02:37:56.232Z,81.85
2023-05-06T02:40:39.744Z,82.95
2023-05-06T02:43:23.447Z,82.01
2023-05-06T02:46:07.034Z,82.93
2023-05-06T02:48:50.636Z,82.45
2023-05-06T02:51:34.155Z,80.51
2023-05-06T02:54:17.672Z,81.13
2023-05-06T02:57:01.610Z,81.74
2023-05-06T02:59:45.176Z,82.22
2023-05-06T03:02:28.822Z,82.88
2023-05-06T03:05:14.954Z,82.81
2023-05-06T03:07:58.560Z,84.17
2023-05-06T03:10:42.225Z,82.98
2023-05-06T03:13:25.943Z,82.11
2023-05-06T03:16:14.403Z,80.81
2023-05-06T03:19:02.162Z,81.62
2023-05-06T03:21:46.204Z,81.87
2023-05-06T03:24:30.093Z,81.91
2023-05-06T03:27:13.857Z,81.43
2023-05-06T03:29:58.616Z,83.02
2023-05-06T03:32:42.539Z,83.02
2023-05-06T03:35:28.736Z,81.69
2023-05-06T03:38:15.314Z,89.33
2023-05-06T03:41:08.875Z,86.41
2023-05-06T03:43:52.902Z,84.08
2023-05-06T03:46:40.347Z,85.06
2023-05-06T03:49:24.378Z,89.63
2023-05-06T03:52:08.156Z,87.01
2023-05-06T03:54:52.398Z,85.57
2023-05-06T03:57:36.151Z,86.44
2023-05-06T04:00:21.070Z,84.49
2023-05-06T04:03:09.543Z,85.95
2023-05-06T04:05:59.236Z,87.41
2023-05-06T04:08:43.546Z,85.69
2023-05-06T04:11:29.592Z,84.21
2023-05-06T04:14:14.537Z,84.78
2023-05-06T04:16:58.316Z,85.85
2023-05-06T04:19:42.269Z,84.52
2023-05-06T04:22:25.936Z,85.50
2023-05-06T04:25:12.405Z,85.31
2023-05-06T04:27:57.235Z,84.84
2023-05-06T04:30:41.654Z,83.23
2023-05-06T04:33:25.792Z,83.49
2023-05-06T04:36:10.789Z,85.99
2023-05-06T04:38:58.908Z,83.68
2023-05-06T04:41:42.530Z,81.36
2023-05-06T04:44:29.645Z,84.94
2023-05-06T04:47:14.065Z,84.53
2023-05-06T04:50:01.082Z,83.86
2023-05-06T04:52:45.810Z,83.56
2023-05-06T04:55:30.575Z,84.09
2023-05-06T04:58:14.695Z,84.64
2023-05-06T05:01:03.967Z,84.12
2023-05-06T05:03:47.579Z,84.64
2023-05-06T05:06:32.295Z,82.25
2023-05-06T05:09:16.610Z,81.85
2023-05-06T05:12:03.322Z,84.46
2023-05-06T05:14:50.558Z,82.05
2023-05-06T05:17:34.199Z,82.28
2023-05-06T05:20:18.997Z,81.75
2023-05-06T05:23:02.612Z,83.00
2023-05-06T05:25:46.529Z,81.49
2023-05-06T05:28:30.675Z,80.10
2023-05-06T05:31:16.265Z,79.07
2023-05-06T05:34:00.272Z,79.38
2023-05-06T05:36:44.477Z,80.07
2023-05-06T05:39:30.826Z,78.33
2023-05-06T05:42:14.869Z,79.76
2023-05-06T05:45:00.656Z,79.30
2023-05-06T05:47:44.268Z,79.71
2023-05-06T05:50:27.827Z,79.42
2023-05-06T05:53:13.622Z,80.30
2023-05-06T05:55:57.998Z,80.49
2023-05-06T05:58:42.398Z,79.57
2023-05-06T06:01:26.237Z,80.28
2023-05-06T06:04:10.412Z,80.42
2023-05-06T06:07:01.939Z,80.13
2023-05-06T06:09:48.998Z,78.87
2023-05-06T06:12:33.719Z,79.76
2023-05-06T06:15:18.180Z,81.44
2023-05-06T06:18:03.228Z,79.73
2023-05-06T06:20:47.368Z,79.69
2023-05-06T06:23:31.118Z,81.99
2023-05-06T06:26:14.763Z,79.99
2023-05-06T06:28:58.703Z,79.68
2023-05-06T06:31:43.147Z,81.93
2023-05-06T06:34:26.733Z,81.23
2023-05-06T06:37:11.524Z,80.59
2023-05-06T06:39:55.021Z,80.79
2023-05-06T06:42:38.620Z,83.79
2023-05-06T06:45:48.162Z,81.72
2023-05-06T06:48:31.851Z,81.53
2023-05-06T06:51:15.385Z,81.78
2023-05-06T06:53:59.018Z,80.37
2023-05-06T06:56:42.541Z,81.13
2023-05-06T06:59:26.186Z,82.33
2023-05-06T07:02:09.725Z,81.06
2023-05-06T07:04:54.010Z,79.90
2023-05-06T07:07:37.591Z,83.37
2023-05-06T07:10:22.222Z,82.65
2023-05-06T07:13:05.861Z,81.20
2023-05-06T07:15:50.107Z,80.47
2023-05-06T07:18:33.627Z,79.28
2023-05-06T07:21:17.620Z,80.01
2023-05-06T07:24:01.266Z,81.30
2023-05-06T07:26:45.108Z,80.48
2023-05-06T07:29:28.657Z,81.57
2023-05-06T07:32:12.268Z,83.20
2023-05-06T07:34:55.840Z,82.70
2023-05-06T07:37:39.373Z,84.53
2023-05-06T07:40:22.984Z,83.03
2023-05-06T07:43:08.336Z,82.25
2023-05-06T07:45:52.002Z,81.51
2023-05-06T07:48:35.659Z,81.78
2023-05-06T07:51:19.558Z,82.88
2023-05-06T07:54:03.146Z,82.83
2023-05-06T07:56:46.728Z,82.45
2023-05-06T07:59:30.328Z,80.54
2023-05-06T08:02:14.182Z,80.11
2023-05-06T08:04:57.814Z,79.79
2023-05-06T08:07:42.536Z,80.43
2023-05-06T08:10:26.143Z,82.38
2023-05-06T08:13:09.772Z,81.24
2023-05-06T08:15:53.773Z,80.64
2023-05-06T08:18:37.313Z,82.10
2023-05-06T08:21:20.963Z,80.82
2023-05-06T08:24:04.800Z,80.07
2023-05-06T08:26:48.312Z,80.65
2023-05-06T08:29:31.840Z,80.78
2023-05-06T08:32:15.718Z,80.04
2023-05-06T08:35:00.795Z,80.59
2023-05-06T08:37:46.765Z,84.38
2023-05-06T08:40:33.829Z,83.35
2023-05-06T08:43:21.782Z,83.44
2023-05-06T08:46:05.397Z,84.57
2023-05-06T08:48:49.247Z,82.90
2023-05-06T08:51:35.224Z,82.99
2023-05-06T08:54:19.437Z,84.22
2023-05-06T08:57:10.385Z,83.45
2023-05-06T08:59:55.824Z,82.18
2023-05-06T09:02:42.705Z,83.84
2023-05-06T09:05:26.753Z,82.80
2023-05-06T09:08:11.808Z,83.92
2023-05-06T09:10:55.526Z,82.78
2023-05-06T09:13:39.070Z,82.84
2023-05-06T09:16:30.800Z,84.45
2023-05-06T09:19:15.437Z,83.53
2023-05-06T09:22:01.462Z,84.25
2023-05-06T09:24:46.113Z,83.36
2023-05-06T09:27:33.507Z,83.14
2023-05-06T09:30:17.373Z,82.55
2023-05-06T09:33:05.055Z,81.88
2023-05-06T09:35:51.224Z,81.42
2023-05-06T09:38:34.714Z,80.87
2023-05-06T09:41:22.993Z,80.27
2023-05-06T09:44:06.704Z,81.28
2023-05-06T09:46:50.849Z,80.18
2023-05-06T09:49:34.796Z,81.17
2023-05-06T09:52:19.638Z,81.10
2023-05-06T09:55:04.157Z,80.73
2023-05-06T09:57:51.380Z,80.43
2023-05-06T10:00:36.816Z,81.18
2023-05-06T10:03:21.640Z,81.71
2023-05-06T10:06:06.338Z,79.70
2023-05-06T10:08:51.127Z,80.63
2023-05-06T10:11:36.027Z,80.01
2023-05-06T10:14:20.263Z,80.59
2023-05-06T10:17:10.003Z,80.65
2023-05-06T10:20:00.901Z,81.62
2023-05-06T10:23:01.743Z,81.25
2023-05-06T10:25:47.707Z,80.70
2023-05-06T10:28:33.318Z,80.87
2023-05-06T10:31:17.106Z,80.71
2023-05-06T10:34:04.847Z,81.06
2023-05-06T10:36:56.698Z,80.51
2023-05-06T10:39:42.434Z,80.59
2023-05-06T10:42:34.681Z,80.75
2023-05-06T10:45:18.240Z,80.41
2023-05-06T10:48:01.693Z,79.90
2023-05-06T10:50:46.811Z,78.74
2023-05-06T10:54:18.306Z,80.64
2023-05-06T10:57:09.430Z,80.97
2023-05-06T10:59:55.644Z,79.81
2023-05-06T11:02:40.756Z,81.17
2023-05-06T11:05:25.062Z,80.46
2023-05-06T11:08:10.694Z,78.55
2023-05-06T11:10:54.950Z,80.22
2023-05-06T11:13:38.537Z,82.06
2023-05-06T11:16:48.812Z,80.52
2023-05-06T11:19:39.310Z,80.48
2023-05-06T11:22:41.171Z,82.82
2023-05-06T11:25:42.813Z,82.18
2023-05-06T11:28:28.867Z,82.60
2023-05-06T11:31:14.433Z,80.84
2023-05-06T11:34:01.938Z,79.50
2023-05-06T11:36:53.705Z,80.22
2023-05-06T11:39:40.726Z,81.64
2023-05-06T11:42:29.322Z,80.80
2023-05-06T11:45:12.975Z,80.50
2023-05-06T11:47:56.575Z,79.75
2023-05-06T11:50:48.383Z,82.49
2023-05-06T11:53:31.951Z,80.90
2023-05-06T11:56:15.553Z,79.92
2023-05-06T11:58:59.079Z,78.79
2023-05-06T12:01:44.270Z,80.64
2023-05-06T12:04:28.119Z,79.98
2023-05-06T12:07:14.286Z,78.92
2023-05-06T12:09:59.236Z,79.56
2023-05-06T12:12:43.760Z,78.69
2023-05-06T12:15:27.546Z,82.77
2023-05-06T12:18:12.818Z,82.46
2023-05-06T12:20:57.690Z,84.51
2023-05-06T12:23:57.152Z,85.49
2023-05-06T12:26:48.983Z,88.15
2023-05-06T12:29:32.658Z,85.79
2023-05-06T12:32:16.378Z,84.04
2023-05-06T12:35:05.857Z,83.76
2023-05-06T12:37:49.544Z,81.79
2023-05-06T12:40:33.483Z,81.56
2023-05-06T12:43:17.135Z,82.28
2023-05-06T12:46:06.100Z,81.16
2023-05-06T12:49:05.688Z,79.92
2023-05-06T12:52:06.971Z,80.46
2023-05-06T12:54:53.024Z,78.97
2023-05-06T12:57:37.077Z,80.26
2023-05-06T13:00:20.971Z,80.40
2023-05-06T13:03:04.868Z,79.74
2023-05-06T13:05:51.990Z,78.90
2023-05-06T13:08:36.221Z,80.34
2023-05-06T13:11:19.805Z,79.26
2023-05-06T13:14:03.339Z,78.85
2023-05-06T13:16:47.127Z,79.82
2023-05-06T13:19:33.012Z,79.22
2023-05-06T13:22:17.308Z,80.65
2023-05-06T13:25:01.689Z,82.14
2023-05-06T13:27:45.199Z,85.82
2023-05-06T13:30:28.891Z,82.85
2023-05-06T13:33:12.572Z,80.51
2023-05-06T13:35:56.128Z,83.19
2023-05-06T13:38:39.933Z,81.72
2023-05-06T13:41:24.931Z,80.95
2023-05-06T13:44:08.595Z,79.29
2023-05-06T13:46:52.771Z,79.41
2023-05-06T13:49:36.447Z,80.09
2023-05-06T13:52:20.009Z,81.09
2023-05-06T13:55:03.789Z,81.53
2023-05-06T13:57:47.303Z,81.11
2023-05-06T14:00:31.072Z,81.27
2023-05-06T14:03:14.621Z,81.78
2023-05-06T14:05:58.225Z,85.09
2023-05-06T14:08:42.224Z,83.60
2023-05-06T14:11:25.834Z,84.04
2023-05-06T14:14:09.357Z,83.10
2023-05-06T14:16:54.664Z,86.29
2023-05-06T14:19:38.260Z,84.38
2023-05-06T14:22:21.832Z,83.58
2023-05-06T14:25:06.031Z,81.98
2023-05-06T14:27:49.516Z,82.64
2023-05-06T14:30:34.386Z,81.85
2023-05-06T14:33:17.937Z,85.30
2023-05-06T14:36:03.530Z,85.43
2023-05-06T14:38:47.158Z,84.05
2023-05-06T14:41:31.197Z,82.77
2023-05-06T14:44:15.397Z,81.69
2023-05-06T14:46:59.029Z,80.88
2023-05-06T14:49:42.555Z,81.73
2023-05-06T14:52:27.105Z,80.15
2023-05-06T14:55:11.953Z,79.16
2023-05-06T14:57:55.780Z,78.50
2023-05-06T15:00:39.280Z,78.92
2023-05-06T15:03:22.792Z,78.38
2023-05-06T15:06:06.739Z,81.42
2023-05-06T15:08:51.153Z,82.08
2023-05-06T15:11:34.676Z,81.68
2023-05-06T15:14:18.307Z,82.62
2023-05-06T15:17:01.946Z,84.04
2023-05-06T15:19:45.996Z,82.17
2023-05-06T15:22:29.524Z,80.09
2023-05-06T15:25:22.482Z,79.65
2023-05-06T15:28:14.269Z,79.38
2023-05-06T15:30:57.876Z,78.76
2023-05-06T15:33:41.826Z,78.82
2023-05-06T15:36:26.836Z,79.44
2023-05-06T15:39:10.313Z,79.65
2023-05-06T15:41:54.085Z,75.84
2023-05-06T15:44:37.735Z,78.33
2023-05-06T15:47:21.439Z,78.02
2023-05-06T15:50:16.362Z,77.30
2023-05-06T15:53:04.683Z,77.34
2023-05-06T15:55:56.698Z,77.19
2023-05-06T15:58:43.789Z,75.35
2023-05-06T16:01:54.100Z,76.83
2023-05-06T16:04:31.418Z,76.56
2023-05-06T16:07:15.790Z,76.40
2023-05-06T16:09:59.304Z,77.23
2023-05-06T16:12:42.881Z,75.61
2023-05-06T16:15:26.479Z,75.37
2023-05-06T16:18:11.012Z,76.15
2023-05-06T16:20:54.561Z,76.33
2023-05-06T16:23:38.230Z,76.17
2023-05-06T16:26:24.828Z,75.58
2023-05-06T16:29:08.479Z,74.37
2023-05-06T16:31:52.243Z,77.05
2023-05-06T16:34:38.975Z,76.42
2023-05-06T16:37:24.256Z,78.83
2023-05-06T16:40:09.333Z,77.64
2023-05-06T16:42:53.066Z,77.67
2023-05-06T16:45:36.749Z,77.53
2023-05-06T16:48:20.735Z,77.42
2023-05-06T16:51:04.391Z,76.26
2023-05-06T16:53:48.225Z,75.90
2023-05-06T16:56:43.853Z,77.11
2023-05-06T16:59:34.797Z,76.35
2023-05-06T17:02:18.390Z,76.30
2023-05-06T17:05:01.910Z,76.28
2023-05-06T17:07:46.257Z,76.54
2023-05-06T17:10:33.120Z,75.10
2023-05-06T17:13:16.801Z,76.05
2023-05-06T17:16:00.520Z,75.00
2023-05-06T17:18:44.077Z,77.17
2023-05-06T17:21:28.092Z,78.52
2023-05-06T17:24:11.718Z,77.95
2023-05-06T17:26:55.582Z,77.95
2023-05-06T17:29:39.199Z,78.68
2023-05-06T17:32:23.044Z,78.16
2023-05-06T17:35:07.752Z,77.43
2023-05-06T17:37:51.894Z,78.32
2023-05-06T17:40:35.578Z,77.95
2023-05-06T17:43:19.393Z,78.67
2023-05-06T17:46:03.109Z,78.20
2023-05-06T17:48:46.830Z,78.68
2023-05-06T17:51:30.428Z,78.86
2023-05-06T17:54:14.034Z,78.81
2023-05-06T17:56:57.656Z,79.18
2023-05-06T17:59:41.261Z,78.17
2023-05-06T18:02:24.818Z,77.19
2023-05-06T18:05:09.051Z,77.44
2023-05-06T18:07:52.984Z,77.71
2023-05-06T18:10:36.524Z,77.75
2023-05-06T18:13:20.116Z,77.40
2023-05-06T18:16:06.998Z,78.76
2023-05-06T18:18:50.725Z,77.46
2023-05-06T18:21:35.367Z,77.76
2023-05-06T18:24:19.021Z,78.91
2023-05-06T18:27:05.027Z,78.31
2023-05-06T18:29:48.737Z,77.51
2023-05-06T18:32:32.630Z,77.51
2023-05-06T18:35:16.200Z,75.95
2023-05-06T18:37:59.767Z,80.60
2023-05-06T18:40:46.113Z,79.76
2023-05-06T18:43:30.946Z,80.00
2023-05-06T18:46:14.526Z,81.10
2023-05-06T18:48:59.214Z,81.35
2023-05-06T18:51:42.788Z,81.10
2023-05-06T18:54:26.362Z,79.72
2023-05-06T18:57:10.567Z,79.29
2023-05-06T18:59:54.112Z,80.61
2023-05-06T19:02:38.091Z,80.12
2023-05-06T19:05:21.803Z,82.07
2023-05-06T19:08:05.682Z,82.74
2023-05-06T19:10:49.202Z,84.40
2023-05-06T19:13:32.777Z,82.55
2023-05-06T19:16:16.558Z,83.18
2023-05-06T19:19:02.659Z,82.82
2023-05-06T19:21:46.207Z,85.44
2023-05-06T19:24:30.975Z,82.47
2023-05-06T19:27:14.475Z,83.01
2023-05-06T19:29:57.935Z,82.80
2023-05-06T19:32:41.481Z,83.07
2023-05-06T19:35:25.033Z,83.82
2023-05-06T19:38:09.332Z,83.67
2023-05-06T19:40:53.591Z,83.54
2023-05-06T19:43:44.806Z,82.99
2023-05-06T19:46:28.463Z,81.70
2023-05-06T19:49:12.063Z,82.05
2023-05-06T19:51:56.064Z,83.75
2023-05-06T19:54:39.919Z,86.42
2023-05-06T19:57:23.521Z,84.78
2023-05-06T20:00:12.248Z,85.66
2023-05-06T20:02:59.435Z,88.25
2023-05-06T20:05:43.178Z,86.54
2023-05-06T20:08:27.543Z,85.84
2023-05-06T20:11:11.443Z,85.23
2023-05-06T20:13:54.964Z,84.70
2023-05-06T20:16:39.119Z,84.87
2023-05-06T20:19:23.950Z,83.87
2023-05-06T20:22:07.555Z,84.13
2023-05-06T20:24:51.492Z,86.00
2023-05-06T20:27:35.193Z,86.04
2023-05-06T20:30:18.940Z,87.59
2023-05-06T20:33:02.585Z,86.70
2023-05-06T20:35:46.228Z,86.21
2023-05-06T20:38:31.023Z,84.76
2023-05-06T20:41:14.808Z,86.45
2023-05-06T20:43:58.456Z,85.70
2023-05-06T20:46:41.983Z,87.32
2023-05-06T20:49:26.739Z,88.06
2023-05-06T20:52:14.534Z,86.70
2023-05-06T20:54:58.396Z,86.31
2023-05-06T20:57:45.349Z,86.78
2023-05-06T21:00:28.905Z,86.79
2023-05-06T21:03:12.579Z,86.50
2023-05-06T21:05:56.227Z,86.92
2023-05-06T21:08:39.852Z,88.43
2023-05-06T21:11:23.502Z,87.81
2023-05-06T21:14:07.557Z,89.13
2023-05-06T21:16:52.378Z,86.71
2023-05-06T21:19:36.086Z,86.91
2023-05-06T21:22:24.334Z,86.15
2023-05-06T21:25:09.289Z,88.71
2023-05-06T21:27:53.082Z,88.48
2023-05-06T21:30:38.218Z,89.29
2023-05-06T21:33:21.775Z,88.91
2023-05-06T21:36:05.983Z,89.12
2023-05-06T21:39:05.680Z,90.55
2023-05-06T21:41:49.291Z,90.46
2023-05-06T21:44:32.837Z,90.48
2023-05-06T21:47:16.379Z,93.26
2023-05-06T21:49:59.931Z,90.70
2023-05-06T21:52:43.520Z,89.19
2023-05-06T21:55:29.906Z,88.81
2023-05-06T21:58:13.439Z,89.19
2023-05-06T22:00:56.962Z,90.23
2023-05-06T22:03:40.633Z,90.48
2023-05-06T22:06:24.338Z,92.00
2023-05-06T22:09:10.536Z,89.77
2023-05-06T22:11:54.130Z,89.25
2023-05-06T22:14:41.555Z,90.26
2023-05-06T22:17:26.018Z,90.88
2023-05-06T22:20:11.151Z,90.89
2023-05-06T22:22:54.822Z,94.09
2023-05-06T22:25:38.790Z,90.77
2023-05-06T22:28:22.390Z,89.11
2023-05-06T22:31:06.311Z,88.83
2023-05-06T22:33:54.530Z,89.62
2023-05-06T22:36:38.276Z,89.59
2023-05-06T22:39:24.368Z,90.71
2023-05-06T22:42:08.667Z,92.74
2023-05-06T22:44:52.297Z,89.91
2023-05-06T22:47:35.962Z,87.96
2023-05-06T22:50:19.536Z,89.37
2023-05-06T22:53:13.712Z,87.49
2023-05-06T22:55:58.882Z,87.80
2023-05-06T22:58:42.392Z,85.12
2023-05-06T23:01:31.812Z,86.53
2023-05-06T23:04:15.669Z,88.58
2023-05-06T23:06:59.364Z,88.34
2023-05-06T23:09:42.925Z,86.63
2023-05-06T23:12:27.859Z,84.59
2023-05-06T23:15:11.838Z,87.63
2023-05-06T23:17:55.782Z,87.70
2023-05-06T23:20:39.317Z,87.39
2023-05-06T23:23:22.847Z,88.11
2023-05-06T23:26:06.418Z,88.21
2023-05-06T23:28:49.959Z,86.74
2023-05-06T23:31:33.587Z,87.27
2023-05-06T23:34:17.139Z,87.94
2023-05-06T23:37:00.994Z,89.13
2023-05-06T23:39:44.790Z,87.74
2023-05-06T23:42:28.394Z,87.62
2023-05-06T23:45:12.293Z,86.59
2023-05-06T23:47:57.111Z,87.79
2023-05-06T23:50:40.847Z,87.17
2023-05-06T23:53:24.395Z,86.77
2023-05-06T23:56:08.243Z,86.25
2023-05-06T23:58:51.793Z,85.46
